createdAt,value
2023-05-18T00:00:16.345Z,16.48
2023-05-18T00:01:20.405Z,16.46
2023-05-18T00:02:24.884Z,16.46
2023-05-18T00:03:28.921Z,16.49
2023-05-18T00:04:35.088Z,16.49
2023-05-18T00:05:38.587Z,16.48
2023-05-18T00:06:43.135Z,16.51
2023-05-18T00:08:51.929Z,16.46
2023-05-18T00:09:54.432Z,16.45
2023-05-18T00:10:58.333Z,16.40
2023-05-18T00:12:02.557Z,16.40
2023-05-18T00:13:11.299Z,16.38
2023-05-18T00:14:15.620Z,16.38
2023-05-18T00:15:21.261Z,16.38
2023-05-18T00:16:24.608Z,16.39
2023-05-18T00:17:28.692Z,16.41
2023-05-18T00:18:32.558Z,16.41
2023-05-18T00:19:38.761Z,16.40
2023-05-18T00:20:44.164Z,16.38
2023-05-18T00:21:48.390Z,16.37
2023-05-18T00:22:51.907Z,16.36
2023-05-18T00:23:55.538Z,16.35
2023-05-18T00:24:58.910Z,16.38
2023-05-18T00:26:07.021Z,16.36
2023-05-18T00:27:10.836Z,16.40
2023-05-18T00:28:14.194Z,16.32
2023-05-18T00:29:17.061Z,16.32
2023-05-18T00:30:20.631Z,16.34
2023-05-18T00:31:24.185Z,16.33
2023-05-18T00:32:28.512Z,16.34
2023-05-18T00:33:32.079Z,16.35
2023-05-18T00:34:36.677Z,16.33
2023-05-18T00:35:40.453Z,16.32
2023-05-18T00:36:44.080Z,16.33
2023-05-18T00:37:47.473Z,16.30
2023-05-18T00:38:51.693Z,16.27
2023-05-18T00:39:55.201Z,16.22
2023-05-18T00:40:58.810Z,16.27
2023-05-18T00:42:02.512Z,16.26
2023-05-18T00:43:07.710Z,16.24
2023-05-18T00:44:11.314Z,16.22
2023-05-18T00:45:15.228Z,16.18
2023-05-18T00:46:17.745Z,16.21
2023-05-18T00:47:21.405Z,16.18
2023-05-18T00:48:24.436Z,16.17
2023-05-18T00:49:31.557Z,16.16
2023-05-18T00:50:36.096Z,16.16
2023-05-18T00:51:41.607Z,16.15
2023-05-18T00:52:47.999Z,16.13
2023-05-18T00:53:52.974Z,16.10
2023-05-18T00:54:59.564Z,16.08
2023-05-18T00:56:03.677Z,16.04
2023-05-18T00:57:07.373Z,16.01
2023-05-18T00:58:11.338Z,16.00
2023-05-18T00:59:15.736Z,15.99
2023-05-18T01:00:22.163Z,15.95
2023-05-18T01:01:31.974Z,15.87
2023-05-18T01:02:37.577Z,15.84
2023-05-18T01:03:42.055Z,15.84
2023-05-18T01:04:45.531Z,15.82
2023-05-18T01:05:57.129Z,15.82
2023-05-18T01:07:02.605Z,15.81
2023-05-18T01:08:06.423Z,15.76
2023-05-18T01:09:31.769Z,15.76
2023-05-18T01:10:37.051Z,15.70
2023-05-18T01:11:41.821Z,15.65
2023-05-18T01:12:53.777Z,15.64
2023-05-18T01:14:08.377Z,15.68
2023-05-18T01:15:15.828Z,15.69
2023-05-18T01:16:23.692Z,15.65
2023-05-18T01:17:41.045Z,15.64
2023-05-18T01:20:08.444Z,15.70
2023-05-18T01:21:19.473Z,15.54
2023-05-18T01:22:44.775Z,15.58
2023-05-18T01:23:55.740Z,15.55
2023-05-18T01:25:03.981Z,15.58
2023-05-18T01:26:18.965Z,15.61
2023-05-18T01:27:27.812Z,15.58
2023-05-18T01:28:35.409Z,15.55
2023-05-18T01:29:39.638Z,15.51
2023-05-18T01:30:43.059Z,15.44
2023-05-18T01:31:46.931Z,15.38
2023-05-18T01:32:50.205Z,15.34
2023-05-18T01:33:54.168Z,15.36
2023-05-18T01:34:57.978Z,15.34
2023-05-18T01:36:01.916Z,15.32
2023-05-18T01:37:05.582Z,15.29
2023-05-18T01:38:09.117Z,15.31
2023-05-18T01:39:16.355Z,15.18
2023-05-18T01:40:20.896Z,15.11
2023-05-18T01:41:28.195Z,15.09
2023-05-18T01:42:35.647Z,14.99
2023-05-18T01:43:44.294Z,14.96
2023-05-18T01:44:49.606Z,14.92
2023-05-18T01:45:55.863Z,14.94
2023-05-18T01:47:01.697Z,14.98
2023-05-18T01:48:06.040Z,14.98
2023-05-18T01:49:11.383Z,14.93
2023-05-18T01:50:15.880Z,14.92
2023-05-18T01:51:20.308Z,14.87
2023-05-18T01:52:31.879Z,14.85
2023-05-18T01:53:39.024Z,14.81
2023-05-18T01:54:45.154Z,14.81
2023-05-18T01:55:49.966Z,14.82
2023-05-18T01:56:55.349Z,14.85
2023-05-18T01:57:59.415Z,14.79
2023-05-18T01:59:06.858Z,14.74
2023-05-18T02:00:11.050Z,14.74
2023-05-18T02:01:21.889Z,14.76
2023-05-18T02:02:25.341Z,14.80
2023-05-18T02:03:28.540Z,14.82
2023-05-18T02:04:34.232Z,14.86
2023-05-18T02:05:41.105Z,14.85
2023-05-18T02:06:45.628Z,14.87
2023-05-18T02:07:49.026Z,14.89
2023-05-18T02:08:52.740Z,14.90
2023-05-18T02:09:57.503Z,14.93
2023-05-18T02:11:02.619Z,14.94
2023-05-18T02:12:06.812Z,14.93
2023-05-18T02:13:09.787Z,14.94
2023-05-18T02:14:13.421Z,14.97
2023-05-18T02:15:17.024Z,14.97
2023-05-18T02:16:19.614Z,14.96
2023-05-18T02:17:25.093Z,14.94
2023-05-18T02:18:29.813Z,14.89
2023-05-18T02:19:34.061Z,15.00
2023-05-18T02:20:39.851Z,14.96
2023-05-18T02:21:44.314Z,14.90
2023-05-18T02:22:47.932Z,14.90
2023-05-18T02:23:51.731Z,14.83
2023-05-18T02:24:54.612Z,14.79
2023-05-18T02:25:58.545Z,14.78
2023-05-18T02:27:03.916Z,14.86
2023-05-18T02:28:07.416Z,14.96
2023-05-18T02:29:12.136Z,15.07
2023-05-18T02:30:16.219Z,15.04
2023-05-18T02:31:19.731Z,15.03
2023-05-18T02:32:23.829Z,15.06
2023-05-18T02:33:27.348Z,15.13
2023-05-18T02:34:35.014Z,15.23
2023-05-18T02:35:38.744Z,15.25
2023-05-18T02:36:46.835Z,15.30
2023-05-18T02:37:50.664Z,15.38
2023-05-18T02:38:55.542Z,15.44
2023-05-18T02:40:00.282Z,15.55
2023-05-18T02:41:03.894Z,15.63
2023-05-18T02:42:07.922Z,15.75
2023-05-18T02:43:12.914Z,15.97
2023-05-18T02:44:16.097Z,16.07
2023-05-18T02:45:22.772Z,16.16
2023-05-18T02:46:28.389Z,16.19
2023-05-18T02:47:32.965Z,16.23
2023-05-18T02:48:37.189Z,16.22
2023-05-18T02:49:40.753Z,16.23
2023-05-18T02:50:47.606Z,16.28
2023-05-18T02:51:51.612Z,16.28
2023-05-18T02:52:56.446Z,16.24
2023-05-18T02:53:59.853Z,16.33
2023-05-18T02:55:04.292Z,16.48
2023-05-18T02:56:13.648Z,16.67
2023-05-18T02:57:18.738Z,16.87
2023-05-18T02:58:24.937Z,17.20
2023-05-18T02:59:39.242Z,17.33
2023-05-18T03:00:42.695Z,17.20
2023-05-18T03:01:46.363Z,17.05
2023-05-18T03:02:49.969Z,16.96
2023-05-18T03:03:53.324Z,17.03
2023-05-18T03:04:57.268Z,17.09
2023-05-18T03:06:06.448Z,17.15
2023-05-18T03:07:10.367Z,17.23
2023-05-18T03:08:13.993Z,17.52
2023-05-18T03:09:21.606Z,17.96
2023-05-18T03:10:25.739Z,18.18
2023-05-18T03:11:28.673Z,18.02
2023-05-18T03:12:31.961Z,17.78
2023-05-18T03:13:35.126Z,17.62
2023-05-18T03:14:38.413Z,17.48
2023-05-18T03:15:43.837Z,17.41
2023-05-18T03:16:49.601Z,17.30
2023-05-18T03:17:53.222Z,17.19
2023-05-18T03:18:59.505Z,17.27
2023-05-18T03:20:06.737Z,17.27
2023-05-18T03:21:17.512Z,17.34
2023-05-18T03:22:22.579Z,17.37
2023-05-18T03:23:28.939Z,17.34
2023-05-18T03:24:35.523Z,17.33
2023-05-18T03:25:38.112Z,17.35
2023-05-18T03:26:45.899Z,17.30
2023-05-18T03:27:49.593Z,17.34
2023-05-18T03:28:53.314Z,17.25
2023-05-18T03:30:00.208Z,17.24
2023-05-18T03:31:05.413Z,17.37
2023-05-18T03:32:09.588Z,17.41
2023-05-18T03:33:13.866Z,17.45
2023-05-18T03:34:19.801Z,17.45
2023-05-18T03:35:25.053Z,17.43
2023-05-18T03:36:28.506Z,17.44
2023-05-18T03:37:33.749Z,17.56
2023-05-18T03:38:37.387Z,17.65
2023-05-18T03:39:46.040Z,17.71
2023-05-18T03:40:49.760Z,17.61
2023-05-18T03:41:53.188Z,17.58
2023-05-18T03:42:57.060Z,17.69
2023-05-18T03:43:59.776Z,17.78
2023-05-18T03:45:05.424Z,17.88
2023-05-18T03:46:08.830Z,17.96
2023-05-18T03:47:12.676Z,17.89
2023-05-18T03:48:16.512Z,17.95
2023-05-18T03:49:19.927Z,17.95
2023-05-18T03:50:23.606Z,17.81
2023-05-18T03:51:28.745Z,17.76
2023-05-18T03:52:36.542Z,17.77
2023-05-18T03:53:43.516Z,17.82
2023-05-18T03:54:47.312Z,17.92
2023-05-18T03:55:52.384Z,17.88
2023-05-18T03:56:55.461Z,17.92
2023-05-18T03:58:00.225Z,18.03
2023-05-18T03:59:04.882Z,17.99
2023-05-18T04:00:12.565Z,17.83
2023-05-18T04:01:23.893Z,17.90
2023-05-18T04:02:27.663Z,18.05
2023-05-18T04:03:35.913Z,18.18
2023-05-18T04:04:46.977Z,18.31
2023-05-18T04:05:52.031Z,18.39
2023-05-18T04:06:55.412Z,18.44
2023-05-18T04:07:58.406Z,18.53
2023-05-18T04:09:04.147Z,18.48
2023-05-18T04:10:09.669Z,18.56
2023-05-18T04:11:17.700Z,18.57
2023-05-18T04:12:21.197Z,18.66
2023-05-18T04:13:24.375Z,18.65
2023-05-18T04:14:27.794Z,18.66
2023-05-18T04:15:31.871Z,18.77
2023-05-18T04:16:36.019Z,18.89
2023-05-18T04:17:44.310Z,19.39
2023-05-18T04:18:47.891Z,20.36
2023-05-18T04:19:50.853Z,21.29
2023-05-18T04:20:55.863Z,21.88
2023-05-18T04:22:01.380Z,22.00
2023-05-18T04:23:05.969Z,22.47
2023-05-18T04:24:09.563Z,23.33
2023-05-18T04:25:15.137Z,24.93
2023-05-18T04:26:25.040Z,26.25
2023-05-18T04:27:31.464Z,27.75
2023-05-18T04:28:35.393Z,28.14
2023-05-18T04:29:44.753Z,28.51
2023-05-18T04:30:49.285Z,28.71
2023-05-18T04:31:54.084Z,29.20
2023-05-18T04:32:58.005Z,29.63
2023-05-18T04:34:01.379Z,30.19
2023-05-18T04:35:09.898Z,30.53
2023-05-18T04:36:13.396Z,31.03
2023-05-18T04:37:17.533Z,31.19
2023-05-18T04:38:26.767Z,31.29
2023-05-18T04:39:30.192Z,31.47
2023-05-18T04:40:37.871Z,31.57
2023-05-18T04:41:42.928Z,31.65
2023-05-18T04:42:48.856Z,31.73
2023-05-18T04:44:00.703Z,31.77
2023-05-18T04:45:07.568Z,31.57
2023-05-18T04:46:16.460Z,32.05
2023-05-18T04:47:23.324Z,32.43
2023-05-18T04:48:26.946Z,32.54
2023-05-18T04:49:36.561Z,33.45
2023-05-18T04:50:40.853Z,33.84
2023-05-18T04:51:44.566Z,33.82
2023-05-18T04:52:49.092Z,33.97
2023-05-18T04:53:56.482Z,34.18
2023-05-18T04:54:58.942Z,34.47
2023-05-18T04:56:02.340Z,34.39
2023-05-18T04:57:05.873Z,34.16
2023-05-18T04:58:13.852Z,34.52
2023-05-18T04:59:20.180Z,34.31
2023-05-18T05:00:32.763Z,34.15
2023-05-18T05:01:36.317Z,34.47
2023-05-18T05:02:40.507Z,34.66
2023-05-18T05:03:44.711Z,34.69
2023-05-18T05:04:48.661Z,34.94
2023-05-18T05:05:52.580Z,35.09
2023-05-18T05:06:56.288Z,35.19
2023-05-18T05:07:59.804Z,35.77
2023-05-18T05:09:02.837Z,35.81
2023-05-18T05:10:11.620Z,35.73
2023-05-18T05:11:17.650Z,36.20
2023-05-18T05:12:21.232Z,36.18
2023-05-18T05:13:25.171Z,36.03
2023-05-18T05:14:28.894Z,35.64
2023-05-18T05:15:36.466Z,35.34
2023-05-18T05:16:41.937Z,35.63
2023-05-18T05:17:50.192Z,35.56
2023-05-18T05:18:53.878Z,35.93
2023-05-18T05:20:00.100Z,35.91
2023-05-18T05:21:04.519Z,36.05
2023-05-18T05:22:07.502Z,36.23
2023-05-18T05:23:12.996Z,36.24
2023-05-18T05:24:18.292Z,35.55
2023-05-18T05:25:24.081Z,36.35
2023-05-18T05:26:27.578Z,36.67
2023-05-18T05:27:32.661Z,36.90
2023-05-18T05:28:36.032Z,36.54
2023-05-18T05:29:38.746Z,36.18
2023-05-18T05:30:41.082Z,36.93
2023-05-18T05:31:46.615Z,36.66
2023-05-18T05:32:50.293Z,37.33
2023-05-18T05:33:53.886Z,37.08
2023-05-18T05:35:01.137Z,37.31
2023-05-18T05:36:07.287Z,37.39
2023-05-18T05:37:10.985Z,37.63
2023-05-18T05:38:17.760Z,37.86
2023-05-18T05:39:21.457Z,38.03
2023-05-18T05:40:27.500Z,37.70
2023-05-18T05:41:33.362Z,38.05
2023-05-18T05:42:36.942Z,38.35
2023-05-18T05:43:41.417Z,38.28
2023-05-18T05:44:47.494Z,38.72
2023-05-18T05:45:50.000Z,38.51
2023-05-18T05:46:55.144Z,38.27
2023-05-18T05:49:13.669Z,38.84
2023-05-18T05:50:18.108Z,38.76
2023-05-18T05:51:23.492Z,38.85
2023-05-18T05:52:27.685Z,39.13
2023-05-18T05:53:32.749Z,38.81
2023-05-18T05:54:38.185Z,38.76
2023-05-18T05:55:42.537Z,38.65
2023-05-18T05:56:46.773Z,38.43
2023-05-18T05:57:52.051Z,38.45
2023-05-18T05:58:55.869Z,37.55
2023-05-18T05:59:59.267Z,37.73
2023-05-18T06:01:03.398Z,37.61
2023-05-18T06:02:07.340Z,37.98
2023-05-18T06:03:11.318Z,38.29
2023-05-18T06:04:17.203Z,37.72
2023-05-18T06:05:20.867Z,37.90
2023-05-18T06:06:23.748Z,37.96
2023-05-18T06:07:30.387Z,38.05
2023-05-18T06:08:33.832Z,38.02
2023-05-18T06:09:38.656Z,38.12
2023-05-18T06:10:44.565Z,38.17
2023-05-18T06:11:49.000Z,38.64
2023-05-18T06:12:53.048Z,38.93
2023-05-18T06:13:58.516Z,38.52
2023-05-18T06:15:02.125Z,37.97
2023-05-18T06:16:07.698Z,37.30
2023-05-18T06:17:12.813Z,37.50
2023-05-18T06:18:18.876Z,37.82
2023-05-18T06:19:24.216Z,37.55
2023-05-18T06:20:28.440Z,37.23
2023-05-18T06:21:32.697Z,37.31
2023-05-18T06:22:37.316Z,37.62
2023-05-18T06:24:02.436Z,37.40
2023-05-18T06:25:08.883Z,37.77
2023-05-18T06:26:14.460Z,37.95
2023-05-18T06:27:30.936Z,37.32
2023-05-18T06:28:36.299Z,36.96
2023-05-18T06:29:44.613Z,38.23
2023-05-18T06:30:59.497Z,39.12
2023-05-18T06:32:15.196Z,38.42
2023-05-18T06:33:23.961Z,38.52
2023-05-18T06:34:28.090Z,39.09
2023-05-18T06:35:32.338Z,39.29
2023-05-18T06:36:35.757Z,39.87
2023-05-18T06:37:40.324Z,39.92
2023-05-18T06:38:44.115Z,39.61
2023-05-18T06:39:48.127Z,40.08
2023-05-18T06:40:50.676Z,39.93
2023-05-18T06:41:54.507Z,40.38
2023-05-18T06:43:00.928Z,39.46
2023-05-18T06:44:10.184Z,39.94
2023-05-18T06:45:14.809Z,40.24
2023-05-18T06:46:27.455Z,40.73
2023-05-18T06:47:35.304Z,40.36
2023-05-18T06:48:39.883Z,40.04
2023-05-18T06:49:43.508Z,39.71
2023-05-18T06:50:46.533Z,39.94
2023-05-18T06:51:50.392Z,40.07
2023-05-18T06:52:56.398Z,39.60
2023-05-18T06:54:00.323Z,39.71
2023-05-18T06:55:07.797Z,39.88
2023-05-18T06:56:15.718Z,39.19
2023-05-18T06:57:22.315Z,38.73
2023-05-18T06:58:27.427Z,39.20
2023-05-18T06:59:39.163Z,39.25
2023-05-18T07:00:43.483Z,39.20
2023-05-18T07:01:47.605Z,40.28
2023-05-18T07:02:52.679Z,40.49
2023-05-18T07:03:57.950Z,40.03
2023-05-18T07:05:06.286Z,40.16
2023-05-18T07:06:09.526Z,39.76
2023-05-18T07:07:18.002Z,39.88
2023-05-18T07:08:21.816Z,39.78
2023-05-18T07:09:26.306Z,39.62
2023-05-18T07:10:29.459Z,40.76
2023-05-18T07:11:34.001Z,40.36
2023-05-18T07:12:39.593Z,40.29
2023-05-18T07:13:44.198Z,40.27
2023-05-18T07:14:49.538Z,39.16
2023-05-18T07:15:53.047Z,39.22
2023-05-18T07:16:55.816Z,38.95
2023-05-18T07:18:00.281Z,39.08
2023-05-18T07:19:06.465Z,38.71
2023-05-18T07:20:10.979Z,38.86
2023-05-18T07:21:13.293Z,39.39
2023-05-18T07:22:16.995Z,39.32
2023-05-18T07:23:21.912Z,39.55
2023-05-18T07:24:28.467Z,39.94
2023-05-18T07:25:32.301Z,39.70
2023-05-18T07:26:35.958Z,39.77
2023-05-18T07:27:39.835Z,39.33
2023-05-18T07:28:43.347Z,38.89
2023-05-18T07:29:46.628Z,38.71
2023-05-18T07:30:52.022Z,38.14
2023-05-18T07:31:55.304Z,38.28
2023-05-18T07:32:58.240Z,38.10
2023-05-18T07:34:02.741Z,38.78
2023-05-18T07:35:07.045Z,38.60
2023-05-18T07:36:10.484Z,38.78
2023-05-18T07:37:17.348Z,38.41
2023-05-18T07:38:20.679Z,38.00
2023-05-18T07:39:26.372Z,37.84
2023-05-18T07:40:30.619Z,38.09
2023-05-18T07:41:34.285Z,37.85
2023-05-18T07:42:39.457Z,37.29
2023-05-18T07:43:44.933Z,37.74
2023-05-18T07:44:48.123Z,37.75
2023-05-18T07:45:53.003Z,37.49
2023-05-18T07:46:57.807Z,37.69
2023-05-18T07:48:03.292Z,37.98
2023-05-18T07:49:07.276Z,37.43
2023-05-18T07:50:10.577Z,36.98
2023-05-18T07:51:15.332Z,37.19
2023-05-18T07:52:18.835Z,36.94
2023-05-18T07:54:36.508Z,36.37
2023-05-18T07:55:40.112Z,35.53
2023-05-18T07:56:44.843Z,35.87
2023-05-18T07:57:48.356Z,36.09
2023-05-18T07:58:51.981Z,36.12
2023-05-18T07:59:55.528Z,36.00
2023-05-18T08:00:59.301Z,35.32
2023-05-18T08:02:01.598Z,35.59
2023-05-18T08:03:05.977Z,36.23
2023-05-18T08:04:09.499Z,36.08
2023-05-18T08:05:13.536Z,35.56
2023-05-18T08:06:17.011Z,35.23
2023-05-18T08:07:21.076Z,34.89
2023-05-18T08:08:25.607Z,35.15
2023-05-18T08:09:29.929Z,35.42
2023-05-18T08:10:33.354Z,35.40
2023-05-18T08:11:37.799Z,35.17
2023-05-18T08:12:42.648Z,34.63
2023-05-18T08:13:46.689Z,34.76
2023-05-18T08:14:50.286Z,34.76
2023-05-18T08:16:03.042Z,34.87
2023-05-18T08:16:57.906Z,34.64
2023-05-18T08:18:01.317Z,34.05
2023-05-18T08:19:05.164Z,33.99
2023-05-18T08:20:16.537Z,34.09
2023-05-18T08:21:24.079Z,34.08
2023-05-18T08:22:30.689Z,34.27
2023-05-18T08:23:34.846Z,33.96
2023-05-18T08:24:38.579Z,33.67
2023-05-18T08:25:42.600Z,33.90
2023-05-18T08:26:46.469Z,34.43
2023-05-18T08:27:50.159Z,34.07
2023-05-18T08:28:53.936Z,33.63
2023-05-18T08:29:56.815Z,33.79
2023-05-18T08:31:02.196Z,33.63
2023-05-18T08:32:07.556Z,34.12
2023-05-18T08:33:11.210Z,34.16
2023-05-18T08:34:14.509Z,33.94
2023-05-18T08:35:17.370Z,34.03
2023-05-18T08:36:20.702Z,34.52
2023-05-18T08:37:27.341Z,34.38
2023-05-18T08:38:30.904Z,34.46
2023-05-18T08:39:37.237Z,34.36
2023-05-18T08:40:45.857Z,34.53
2023-05-18T08:42:04.168Z,34.10
2023-05-18T08:43:21.376Z,34.16
2023-05-18T08:44:29.757Z,34.06
2023-05-18T08:45:36.197Z,33.82
2023-05-18T08:46:43.537Z,33.56
2023-05-18T08:47:48.068Z,33.99
2023-05-18T08:48:53.648Z,33.51
2023-05-18T08:49:58.457Z,33.60
2023-05-18T08:51:02.841Z,33.75
2023-05-18T08:52:10.149Z,33.71
2023-05-18T08:53:14.884Z,34.20
2023-05-18T08:54:21.126Z,33.97
2023-05-18T08:55:24.703Z,34.24
2023-05-18T08:56:29.145Z,34.07
2023-05-18T08:57:34.441Z,33.18
2023-05-18T08:58:39.900Z,33.63
2023-05-18T08:59:44.344Z,33.37
2023-05-18T09:00:58.090Z,33.65
2023-05-18T09:02:01.617Z,33.91
2023-05-18T09:03:06.364Z,34.00
2023-05-18T09:04:10.385Z,33.80
2023-05-18T09:05:15.181Z,34.01
2023-05-18T09:06:18.510Z,34.32
2023-05-18T09:07:25.095Z,34.32
2023-05-18T09:08:29.314Z,34.40
2023-05-18T09:09:33.594Z,34.10
2023-05-18T09:10:36.571Z,33.56
2023-05-18T09:11:39.492Z,33.64
2023-05-18T09:12:42.696Z,33.49
2023-05-18T09:13:45.475Z,33.37
2023-05-18T09:14:49.228Z,33.09
2023-05-18T09:15:57.420Z,33.14
2023-05-18T09:17:01.308Z,33.33
2023-05-18T09:18:04.650Z,33.48
2023-05-18T09:19:07.211Z,33.75
2023-05-18T09:20:09.763Z,33.15
2023-05-18T09:21:15.331Z,33.34
2023-05-18T09:22:18.959Z,33.35
2023-05-18T09:23:22.750Z,33.03
2023-05-18T09:24:25.372Z,33.09
2023-05-18T09:25:30.486Z,32.62
2023-05-18T09:26:34.422Z,32.42
2023-05-18T09:27:40.037Z,32.86
2023-05-18T09:28:44.356Z,33.05
2023-05-18T09:30:00.401Z,33.00
2023-05-18T09:31:09.605Z,32.97
2023-05-18T09:32:13.355Z,32.89
2023-05-18T09:33:19.378Z,32.82
2023-05-18T09:34:23.208Z,33.19
2023-05-18T09:35:26.802Z,33.63
2023-05-18T09:36:34.142Z,33.45
2023-05-18T09:37:37.880Z,33.45
2023-05-18T09:38:48.919Z,33.12
2023-05-18T09:40:02.428Z,33.30
2023-05-18T09:41:07.617Z,33.19
2023-05-18T09:42:11.330Z,33.37
2023-05-18T09:43:14.802Z,33.09
2023-05-18T09:44:18.957Z,33.05
2023-05-18T09:45:27.478Z,33.24
2023-05-18T09:46:36.382Z,33.21
2023-05-18T09:47:39.725Z,33.28
2023-05-18T09:48:44.063Z,33.12
2023-05-18T09:49:46.629Z,32.34
2023-05-18T09:50:52.398Z,32.16
2023-05-18T09:51:56.133Z,32.45
2023-05-18T09:53:00.587Z,32.55
2023-05-18T09:54:07.730Z,32.94
2023-05-18T09:55:13.269Z,32.72
2023-05-18T09:56:17.596Z,33.06
2023-05-18T09:57:21.095Z,33.22
2023-05-18T09:58:26.155Z,33.25
2023-05-18T09:59:30.181Z,33.42
2023-05-18T10:00:38.729Z,33.68
2023-05-18T10:02:03.470Z,33.40
2023-05-18T10:03:13.233Z,33.84
2023-05-18T10:04:18.719Z,33.50
2023-05-18T10:05:24.573Z,33.33
2023-05-18T10:06:29.473Z,33.10
2023-05-18T10:07:36.274Z,33.44
2023-05-18T10:08:40.209Z,33.67
2023-05-18T10:09:45.184Z,33.60
2023-05-18T10:10:51.282Z,33.67
2023-05-18T10:11:54.692Z,33.22
2023-05-18T10:13:00.282Z,33.44
2023-05-18T10:14:04.782Z,33.17
2023-05-18T10:15:11.315Z,33.22
2023-05-18T10:16:16.298Z,33.50
2023-05-18T10:17:21.005Z,33.25
2023-05-18T10:18:26.505Z,33.02
2023-05-18T10:19:31.030Z,33.05
2023-05-18T10:20:34.006Z,33.23
2023-05-18T10:21:37.826Z,33.17
2023-05-18T10:22:42.281Z,33.33
2023-05-18T10:23:48.424Z,32.61
2023-05-18T10:24:54.253Z,31.86
2023-05-18T10:26:00.141Z,31.13
2023-05-18T10:27:06.007Z,30.98
2023-05-18T10:28:11.291Z,31.10
2023-05-18T10:29:15.878Z,30.89
2023-05-18T10:30:20.596Z,30.81
2023-05-18T10:31:26.868Z,30.87
2023-05-18T10:32:33.449Z,30.99
2023-05-18T10:33:36.580Z,31.55
2023-05-18T10:34:43.738Z,31.70
2023-05-18T10:35:50.735Z,31.71
2023-05-18T10:36:54.790Z,31.26
2023-05-18T10:38:00.282Z,31.45
2023-05-18T10:39:04.305Z,31.73
2023-05-18T10:40:09.337Z,32.09
2023-05-18T10:41:13.293Z,31.53
2023-05-18T10:42:17.116Z,31.74
2023-05-18T10:43:24.105Z,32.12
2023-05-18T10:44:27.791Z,32.16
2023-05-18T10:45:33.184Z,32.30
2023-05-18T10:46:37.533Z,31.68
2023-05-18T10:47:42.974Z,31.90
2023-05-18T10:48:52.090Z,32.06
2023-05-18T10:49:55.960Z,31.94
2023-05-18T10:51:00.933Z,32.12
2023-05-18T10:52:04.746Z,31.91
2023-05-18T10:53:11.280Z,31.81
2023-05-18T10:54:15.282Z,31.47
2023-05-18T10:55:19.774Z,31.43
2023-05-18T10:56:24.918Z,31.01
2023-05-18T10:57:35.234Z,30.84
2023-05-18T10:58:39.148Z,31.17
2023-05-18T10:59:45.464Z,31.54
2023-05-18T11:00:52.724Z,31.72
2023-05-18T11:02:00.059Z,31.88
2023-05-18T11:03:04.839Z,31.66
2023-05-18T11:04:08.785Z,31.69
2023-05-18T11:05:13.788Z,31.58
2023-05-18T11:06:22.566Z,31.39
2023-05-18T11:07:27.679Z,31.66
2023-05-18T11:08:33.120Z,31.66
2023-05-18T11:09:37.482Z,31.81
2023-05-18T11:10:44.036Z,31.81
2023-05-18T11:11:55.412Z,31.66
2023-05-18T11:13:01.793Z,31.39
2023-05-18T11:14:05.296Z,31.53
2023-05-18T11:15:09.331Z,31.31
2023-05-18T11:16:12.874Z,31.36
2023-05-18T11:17:21.343Z,31.27
2023-05-18T11:18:43.146Z,31.54
2023-05-18T11:20:10.954Z,31.12
2023-05-18T11:21:22.585Z,31.45
2023-05-18T11:22:29.850Z,31.27
2023-05-18T11:23:33.486Z,31.16
2023-05-18T11:24:37.519Z,30.76
2023-05-18T11:25:42.894Z,30.89
2023-05-18T11:26:46.630Z,30.77
2023-05-18T11:27:52.310Z,30.56
2023-05-18T11:28:59.798Z,30.64
2023-05-18T11:30:15.140Z,31.21
2023-05-18T11:31:09.099Z,31.34
2023-05-18T11:32:30.071Z,31.38
2023-05-18T11:33:30.433Z,31.32
2023-05-18T11:34:41.861Z,31.29
2023-05-18T11:36:05.313Z,31.17
2023-05-18T11:37:10.102Z,30.71
2023-05-18T11:38:18.357Z,30.32
2023-05-18T11:39:25.828Z,30.77
2023-05-18T11:40:49.730Z,31.11
2023-05-18T11:42:12.341Z,31.23
2023-05-18T11:43:20.490Z,31.50
2023-05-18T11:44:25.594Z,31.18
2023-05-18T11:45:28.078Z,31.33
2023-05-18T11:46:31.175Z,31.09
2023-05-18T11:47:35.101Z,30.98
2023-05-18T11:48:40.267Z,30.90
2023-05-18T11:49:49.224Z,31.23
2023-05-18T11:50:59.703Z,30.87
2023-05-18T11:52:08.639Z,30.97
2023-05-18T11:53:19.261Z,31.14
2023-05-18T11:54:24.898Z,30.80
2023-05-18T11:55:30.342Z,30.92
2023-05-18T11:56:34.564Z,31.15
2023-05-18T11:57:40.702Z,31.47
2023-05-18T11:58:44.414Z,31.48
2023-05-18T11:59:48.983Z,31.23
2023-05-18T12:00:52.980Z,31.25
2023-05-18T12:02:04.698Z,31.26
2023-05-18T12:03:08.767Z,31.30
2023-05-18T12:04:12.905Z,31.20
2023-05-18T12:05:16.825Z,31.35
2023-05-18T12:07:38.241Z,31.63
2023-05-18T12:08:43.641Z,31.64
2023-05-18T12:09:46.684Z,31.74
2023-05-18T12:10:50.097Z,31.59
2023-05-18T12:11:53.562Z,31.35
2023-05-18T12:13:00.024Z,31.08
2023-05-18T12:14:06.894Z,31.21
2023-05-18T12:15:17.253Z,31.14
2023-05-18T12:16:24.319Z,30.85
2023-05-18T12:17:42.306Z,30.80
2023-05-18T12:18:52.786Z,30.53
2023-05-18T12:19:58.256Z,30.51
2023-05-18T12:21:03.555Z,30.33
2023-05-18T12:22:10.489Z,30.38
2023-05-18T12:23:14.938Z,30.11
2023-05-18T12:24:19.690Z,29.78
2023-05-18T12:25:24.459Z,29.79
2023-05-18T12:26:30.266Z,29.75
2023-05-18T12:27:35.455Z,29.81
2023-05-18T12:28:38.620Z,29.77
2023-05-18T12:29:46.402Z,29.73
2023-05-18T12:30:53.271Z,29.77
2023-05-18T12:31:56.871Z,29.78
2023-05-18T12:33:00.830Z,29.85
2023-05-18T12:34:04.149Z,29.80
2023-05-18T12:35:09.453Z,29.65
2023-05-18T12:36:13.914Z,29.46
2023-05-18T12:37:16.305Z,29.81
2023-05-18T12:38:19.308Z,30.05
2023-05-18T12:39:23.152Z,30.01
2023-05-18T12:40:28.980Z,30.28
2023-05-18T12:41:32.411Z,30.36
2023-05-18T12:42:37.452Z,30.58
2023-05-18T12:43:43.980Z,30.75
2023-05-18T12:44:49.520Z,30.63
2023-05-18T12:45:53.254Z,30.69
2023-05-18T12:46:56.177Z,30.50
2023-05-18T12:48:06.180Z,30.37
2023-05-18T12:49:11.170Z,30.62
2023-05-18T12:50:19.197Z,30.72
2023-05-18T12:51:23.115Z,30.67
2023-05-18T12:52:27.194Z,30.55
2023-05-18T12:53:43.762Z,30.67
2023-05-18T12:55:02.393Z,30.74
2023-05-18T12:56:10.070Z,30.86
2023-05-18T12:57:14.797Z,30.54
2023-05-18T12:58:20.230Z,30.65
2023-05-18T12:59:23.556Z,30.97
2023-05-18T13:00:32.549Z,31.13
2023-05-18T13:01:39.083Z,31.24
2023-05-18T13:02:43.848Z,31.08
2023-05-18T13:03:47.529Z,30.83
2023-05-18T13:04:54.024Z,30.75
2023-05-18T13:06:08.585Z,31.11
2023-05-18T13:07:12.885Z,31.29
2023-05-18T13:08:20.181Z,31.45
2023-05-18T13:09:23.673Z,31.34
2023-05-18T13:10:30.217Z,31.23
2023-05-18T13:11:35.900Z,31.42
2023-05-18T13:12:45.776Z,31.46
2023-05-18T13:14:03.402Z,31.42
2023-05-18T13:15:12.624Z,30.90
2023-05-18T13:16:22.246Z,30.87
2023-05-18T13:17:25.828Z,30.81
2023-05-18T13:18:29.327Z,30.97
2023-05-18T13:19:35.586Z,31.06
2023-05-18T13:20:44.352Z,31.12
2023-05-18T13:21:49.224Z,31.00
2023-05-18T13:22:53.042Z,30.95
2023-05-18T13:23:56.755Z,30.81
2023-05-18T13:25:00.053Z,30.87
2023-05-18T13:26:05.832Z,30.76
2023-05-18T13:27:12.517Z,30.86
2023-05-18T13:28:16.834Z,30.65
2023-05-18T13:29:20.676Z,30.50
2023-05-18T13:30:25.101Z,30.57
2023-05-18T13:31:30.314Z,30.68
2023-05-18T13:32:35.094Z,30.58
2023-05-18T13:33:38.849Z,30.72
2023-05-18T13:34:43.562Z,30.30
2023-05-18T13:35:48.790Z,30.07
2023-05-18T13:36:52.714Z,29.84
2023-05-18T13:37:55.996Z,30.00
2023-05-18T13:38:59.555Z,29.89
2023-05-18T13:40:04.026Z,29.96
2023-05-18T13:41:11.352Z,30.02
2023-05-18T13:42:14.568Z,29.93
2023-05-18T13:43:19.178Z,29.91
2023-05-18T13:44:24.452Z,29.90
2023-05-18T13:45:27.934Z,30.03
2023-05-18T13:46:32.229Z,30.08
2023-05-18T13:47:35.566Z,30.22
2023-05-18T13:48:38.878Z,30.36
2023-05-18T13:49:43.122Z,30.49
2023-05-18T13:50:46.893Z,30.67
2023-05-18T13:51:50.551Z,30.60
2023-05-18T13:52:56.050Z,30.43
2023-05-18T13:53:59.865Z,30.34
2023-05-18T13:55:04.496Z,30.28
2023-05-18T13:56:07.700Z,30.06
2023-05-18T13:57:11.106Z,30.15
2023-05-18T13:58:14.925Z,30.26
2023-05-18T13:59:18.991Z,30.27
2023-05-18T14:00:29.724Z,30.44
2023-05-18T14:01:36.108Z,30.16
2023-05-18T14:02:42.717Z,30.19
2023-05-18T14:03:46.346Z,30.28
2023-05-18T14:04:49.119Z,30.34
2023-05-18T14:05:52.340Z,30.28
2023-05-18T14:06:56.537Z,30.39
2023-05-18T14:07:59.929Z,30.41
2023-05-18T14:09:03.153Z,30.40
2023-05-18T14:10:08.608Z,30.50